Wind from 310 at 9 knots gusting 11

Air temperature 23.8° C

Last reported at 2014-Apr-23 04:54 UTC.
Time now 2014-Apr-23 06:50 UTC

Location: N 25°05' W 081°05'.
View on Google Maps.

See reports from other nearby stations

Tides Stations Pressure Air Temp Water Temp Dewpoint Dewpoint depression Visibility Wind Speed Wind Dir Waves Ship positions

  
sailing weather and tide predictions

Current Weather: station NFBF1

date/time (UTC)wind fromknots sea level pressurealtimeterstation pressurevisibilityair tempwater tempwave heightnotes
2014-Apr-23 04:54 310 9 gusting 11 23.8
2014-Apr-23 04:48 310 9 gusting 11 23.8
2014-Apr-23 04:42 320 9 gusting 10 23.8
2014-Apr-23 04:36 320 8 gusting 10 23.8
2014-Apr-23 04:30 320 8 gusting 10 23.8
2014-Apr-23 04:24 310 8 gusting 10 23.8
2014-Apr-23 04:18 310 9 gusting 10 23.8
2014-Apr-23 04:12 320 9 gusting 10 23.8
2014-Apr-23 04:06 320 9 gusting 11 23.8
2014-Apr-23 04:00 320 9 gusting 11 23.8
2014-Apr-23 03:54 320 10 gusting 11 23.8
2014-Apr-23 03:48 310 9 gusting 11 23.9
2014-Apr-23 03:42 320 9 gusting 11 23.9
2014-Apr-23 03:36 320 9 gusting 11 23.9
2014-Apr-23 03:30 310 9 gusting 11 23.9
2014-Apr-23 03:24 320 9 gusting 11 23.9
2014-Apr-23 03:18 330 9 gusting 10 23.9
2014-Apr-23 03:12 320 8 gusting 10 23.9
2014-Apr-23 03:06 320 7 gusting 9 23.9
2014-Apr-23 03:00 320 8 gusting 10 23.9
2014-Apr-23 02:54 310 9 gusting 10 23.9
2014-Apr-23 02:48 320 8 gusting 10 23.9
2014-Apr-23 02:42 320 9 gusting 11 23.9
2014-Apr-23 02:36 320 9 gusting 11 24.0
2014-Apr-23 02:30 320 9 gusting 11 23.9
2014-Apr-23 02:24 330 10 gusting 12 23.9
2014-Apr-23 02:18 330 10 gusting 12 23.9
2014-Apr-23 02:12 320 11 gusting 12 23.9
2014-Apr-23 02:06 330 10 gusting 13 23.9
2014-Apr-23 02:00 330 10 gusting 12 23.9
2014-Apr-23 01:54 320 10 gusting 12 23.9
2014-Apr-23 01:48 320 9 gusting 11 24.0
2014-Apr-23 00:54 310 10 gusting 11 24.0
2014-Apr-23 00:48 320 9 gusting 11 24.0
2014-Apr-23 00:42 320 10 gusting 12 24.0
2014-Apr-23 00:36 320 10 gusting 11 24.0
2014-Apr-23 00:30 320 10 gusting 12 23.9
2014-Apr-23 00:24 320 11 gusting 13 24.0
2014-Apr-23 00:18 320 10 gusting 12 24.0
2014-Apr-23 00:12 320 10 gusting 12 24.0
2014-Apr-23 00:06 330 10 gusting 12 24.0
2014-Apr-23 00:00 330 11 gusting 13 24.0
2014-Apr-22 22:54 330 13 gusting 16 23.9
2014-Apr-22 22:48 340 13 gusting 16 24.0
2014-Apr-22 21:54 330 15 gusting 18 23.9
2014-Apr-22 21:48 330 15 gusting 17 23.9
2014-Apr-22 20:54 330 13 gusting 16 24.1
2014-Apr-22 20:48 330 14 gusting 16 24.1
2014-Apr-22 20:42 320 14 gusting 16 24.1
2014-Apr-22 20:36 320 13 gusting 15 24.1
2014-Apr-22 20:30 320 13 gusting 15 24.0
2014-Apr-22 20:24 320 13 gusting 16 24.1
2014-Apr-22 20:18 320 13 gusting 15 24.1
2014-Apr-22 20:12 330 12 gusting 14 24.0
2014-Apr-22 20:06 330 13 gusting 15 23.9
2014-Apr-22 20:00 330 12 gusting 14 24.0
2014-Apr-22 19:54 320 13 gusting 15 23.9
2014-Apr-22 19:48 330 12 gusting 15 23.9
2014-Apr-22 18:54 330 13 gusting 16 23.7
2014-Apr-22 18:48 330 13 gusting 15 23.8
2014-Apr-22 18:42 320 13 gusting 17 23.8
2014-Apr-22 18:36 320 12 gusting 14 23.7
2014-Apr-22 18:30 320 12 gusting 14 23.8
2014-Apr-22 18:24 320 12 gusting 14 23.7
2014-Apr-22 18:18 320 12 gusting 14 23.7
2014-Apr-22 18:12 330 11 gusting 14 23.7
2014-Apr-22 18:06 320 11 gusting 14 23.8
2014-Apr-22 18:00 320 11 gusting 14 23.8
2014-Apr-22 17:54 320 12 gusting 14 23.8
2014-Apr-22 17:48 320 12 gusting 14 23.8
2014-Apr-22 16:54 260 3 gusting 5 24.3
2014-Apr-22 16:48 260 2 gusting 4 24.3
2014-Apr-22 15:54 220 2 gusting 4 24.3
2014-Apr-22 15:48 190 2 gusting 3 24.4
2014-Apr-22 15:42 210 2 gusting 2 24.3
2014-Apr-22 15:36 200 2 gusting 2 24.5
2014-Apr-22 15:30 180 1 gusting 3 24.7
2014-Apr-22 15:24 180 1 gusting 3 24.8
2014-Apr-22 15:18 24.9
2014-Apr-22 15:12 25.1
2014-Apr-22 15:06 25.7
2014-Apr-22 15:00 25.6
2014-Apr-22 14:54 25.3
2014-Apr-22 14:48 24.8
2014-Apr-22 13:54 040 5 gusting 6 23.4
2014-Apr-22 13:48 050 6 gusting 6 23.2
2014-Apr-22 12:54 040 9 gusting 11 21.9
2014-Apr-22 12:48 040 10 gusting 12 21.7
2014-Apr-22 12:42 050 11 gusting 12 21.6
2014-Apr-22 12:36 050 11 gusting 12 21.5
2014-Apr-22 12:30 050 11 gusting 13 21.4
2014-Apr-22 12:24 050 11 gusting 12 21.3
2014-Apr-22 12:18 050 11 gusting 12 21.3
2014-Apr-22 12:12 050 12 gusting 13 21.0
2014-Apr-22 12:06 050 12 gusting 13 21.1
2014-Apr-22 12:00 050 12 gusting 14 20.9
2014-Apr-22 11:54 050 12 gusting 14 20.9
2014-Apr-22 11:48 050 12 gusting 14 21.0
2014-Apr-22 10:54 050 12 gusting 13 20.8
2014-Apr-22 10:48 040 12 gusting 14 20.7
2014-Apr-22 10:42 040 12 gusting 14 20.8
2014-Apr-22 10:36 040 12 gusting 14 20.8
2014-Apr-22 10:30 040 12 gusting 13 20.7
2014-Apr-22 10:24 040 12 gusting 14 20.8
2014-Apr-22 10:18 040 12 gusting 14 20.8
2014-Apr-22 10:12 040 12 gusting 14 20.9
2014-Apr-22 10:06 040 12 gusting 14 20.9
2014-Apr-22 10:00 040 12 gusting 14 20.9
2014-Apr-22 09:54 040 12 gusting 14 20.9
2014-Apr-22 09:48 040 11 gusting 13 20.9
2014-Apr-22 09:42 040 11 gusting 13 20.9
2014-Apr-22 09:36 040 11 gusting 12 21.1
2014-Apr-22 09:30 040 11 gusting 13 21.1
2014-Apr-22 09:24 050 11 gusting 13 21.3
2014-Apr-22 09:18 050 11 gusting 12 21.3
2014-Apr-22 09:12 050 11 gusting 12 21.4
2014-Apr-22 09:06 040 11 gusting 12 21.3
2014-Apr-22 09:00 050 10 gusting 12 21.4
2014-Apr-22 08:54 040 11 gusting 12 21.3
2014-Apr-22 08:48 050 12 gusting 13 21.3
2014-Apr-22 08:42 040 11 gusting 13 21.3
2014-Apr-22 08:36 040 11 gusting 13 21.2
2014-Apr-22 08:30 040 11 gusting 12 21.3
2014-Apr-22 08:24 030 10 gusting 12 21.4
2014-Apr-22 08:18 030 10 gusting 12 21.5
2014-Apr-22 08:12 030 10 gusting 12 21.5
2014-Apr-22 08:06 030 10 gusting 12 21.5
2014-Apr-22 08:00 030 11 gusting 12 21.6
2014-Apr-22 07:54 030 11 gusting 12 21.6
2014-Apr-22 07:48 030 10 gusting 13 21.6
2014-Apr-22 06:54 030 10 gusting 12 22.1
2014-Apr-22 06:48 030 10 gusting 12 22.3
2014-Apr-22 05:54 050 8 gusting 9 22.6
2014-Apr-22 05:48 040 8 gusting 9 22.5
2014-Apr-22 04:54 040 9 gusting 11 23.0
2014-Apr-22 04:48 040 10 gusting 11 22.9
2014-Apr-22 03:54 030 9 gusting 11 23.3
2014-Apr-22 03:48 030 9 gusting 10 23.3
2014-Apr-22 02:54 010 10 gusting 12 24.0
2014-Apr-22 02:48 360 11 gusting 12 24.0
2014-Apr-22 01:54 360 13 gusting 15 23.9
2014-Apr-22 01:48 360 12 gusting 14 23.9
2014-Apr-22 01:42 360 13 gusting 15 23.9
2014-Apr-22 01:36 350 13 gusting 15 23.9
2014-Apr-22 01:30 350 12 gusting 14 23.9
2014-Apr-22 01:24 350 12 gusting 14 23.9
2014-Apr-22 01:18 350 12 gusting 14 23.9
2014-Apr-22 01:12 350 12 gusting 14 23.9
2014-Apr-22 01:06 350 12 gusting 14 23.9
2014-Apr-22 01:00 350 13 gusting 15 23.9
2014-Apr-22 00:54 340 13 gusting 15 23.8
2014-Apr-22 00:48 340 13 gusting 15 23.9
2014-Apr-22 00:42 340 12 gusting 14 23.8
2014-Apr-22 00:36 340 13 gusting 14 23.7
2014-Apr-22 00:30 340 12 gusting 15 23.7
2014-Apr-22 00:24 340 13 gusting 15 23.6
2014-Apr-22 00:18 330 13 gusting 15 23.6
2014-Apr-22 00:12 340 13 gusting 15 23.6
2014-Apr-22 00:06 340 13 gusting 15 23.6
2014-Apr-22 00:00 340 14 gusting 15 23.6
2014-Apr-21 23:30 340 15 gusting 17 23.4
2014-Apr-21 23:24 340 14 gusting 17 23.6
2014-Apr-21 23:18 340 15 gusting 17 23.6
2014-Apr-21 23:12 330 15 gusting 17 23.6
2014-Apr-21 23:06 330 15 gusting 17 23.6
2014-Apr-21 23:00 330 15 gusting 18 23.6
2014-Apr-21 22:54 330 16 gusting 18 23.5
2014-Apr-21 22:48 330 16 gusting 18 23.5
2014-Apr-21 21:54 330 15 gusting 18 23.6
2014-Apr-21 21:48 330 14 gusting 17 23.7
2014-Apr-21 21:42 330 14 gusting 16 23.7
2014-Apr-21 21:36 330 13 gusting 16 23.8
2014-Apr-21 21:30 320 14 gusting 16 23.6
2014-Apr-21 21:24 320 13 gusting 15 23.6
2014-Apr-21 21:18 320 14 gusting 16 23.6
2014-Apr-21 21:12 330 14 gusting 16 23.5
2014-Apr-21 21:06 330 14 gusting 16 23.5
2014-Apr-21 21:00 330 13 gusting 15 23.4
2014-Apr-21 20:54 330 13 gusting 15 23.5
2014-Apr-21 20:48 330 14 gusting 16 23.4
2014-Apr-21 19:54 330 13 gusting 15 23.1
2014-Apr-21 19:48 330 13 gusting 16 23.1
2014-Apr-21 18:54 330 14 gusting 18 22.6
2014-Apr-21 18:48 340 15 gusting 17 22.6
2014-Apr-21 17:54 330 15 gusting 18 22.0
2014-Apr-21 17:48 330 14 gusting 16 22.1
2014-Apr-21 17:42 340 15 gusting 17 22.0
2014-Apr-21 17:36 330 15 gusting 17 22.0
2014-Apr-21 17:30 340 14 gusting 16 22.0
2014-Apr-21 17:24 340 14 gusting 17 21.9
2014-Apr-21 17:18 340 14 gusting 17 22.0
2014-Apr-21 17:12 340 14 gusting 16 21.9
2014-Apr-21 17:06 340 14 gusting 17 21.9
2014-Apr-21 17:00 340 14 gusting 17 21.8
2014-Apr-21 16:54 340 14 gusting 16 21.9
2014-Apr-21 16:48 340 14 gusting 16 21.9
2014-Apr-21 15:54 340 13 gusting 16 22.1
2014-Apr-21 15:48 340 14 gusting 17 21.9
2014-Apr-21 15:42 340 14 gusting 16 21.9
2014-Apr-21 15:36 340 14 gusting 15 22.0
2014-Apr-21 15:30 340 15 gusting 17 21.8
2014-Apr-21 15:24 340 14 gusting 16 22.0
2014-Apr-21 15:18 340 14 gusting 16 22.0
2014-Apr-21 15:12 340 13 gusting 15 22.1
2014-Apr-21 15:06 340 14 gusting 16 22.1
2014-Apr-21 15:00 340 13 gusting 16 22.0
2014-Apr-21 14:54 350 9 gusting 14 22.1
2014-Apr-21 14:48 360 9 gusting 12 21.9
2014-Apr-21 14:42 360 9 gusting 12 21.9
2014-Apr-21 14:36 360 9 gusting 11 21.6
2014-Apr-21 14:30 020 10 gusting 12 21.5
2014-Apr-21 14:24 360 10 gusting 12 21.3
2014-Apr-21 14:18 020 10 gusting 13 21.3
2014-Apr-21 14:12 020 11 gusting 12 21.2
2014-Apr-21 14:06 020 11 gusting 13 21.0
2014-Apr-21 14:00 020 11 gusting 12 20.9
2014-Apr-21 13:54 020 11 gusting 13 20.8
2014-Apr-21 13:48 020 10 gusting 12 20.6
2014-Apr-21 12:54 030 14 gusting 17 19.8
2014-Apr-21 12:48 030 15 gusting 16 19.8
2014-Apr-21 12:42 030 15 gusting 18 19.8
2014-Apr-21 12:36 030 14 gusting 17 19.6
2014-Apr-21 12:30 030 14 gusting 16 19.6
2014-Apr-21 12:24 030 14 gusting 17 19.5
2014-Apr-21 12:18 030 15 gusting 17 19.4
2014-Apr-21 12:12 030 15 gusting 17 19.3
2014-Apr-21 12:06 030 15 gusting 17 19.2
2014-Apr-21 12:00 040 15 gusting 18 19.3
2014-Apr-21 11:54 030 15 gusting 17 19.4
2014-Apr-21 11:48 030 14 gusting 16 19.3
2014-Apr-21 10:54 040 15 gusting 17 19.2
2014-Apr-21 10:48 040 15 gusting 18 19.2
2014-Apr-21 09:54 040 14 gusting 17 20.0
2014-Apr-21 09:48 040 14 gusting 16 20.1
2014-Apr-21 09:42 050 13 gusting 15 20.0
2014-Apr-21 09:36 040 13 gusting 15 20.0
2014-Apr-21 09:30 040 13 gusting 16 20.1
2014-Apr-21 09:24 040 13 gusting 16 20.1
2014-Apr-21 09:18 040 14 gusting 17 20.1
2014-Apr-21 09:12 050 13 gusting 15 20.1
2014-Apr-21 09:06 050 14 gusting 16 20.2
2014-Apr-21 09:00 050 14 gusting 16 20.1
2014-Apr-21 08:54 040 14 gusting 16 20.2
2014-Apr-21 08:48 050 14 gusting 17 20.2
2014-Apr-21 07:54 040 13 gusting 15 20.8
2014-Apr-21 07:48 040 14 gusting 16 20.8
2014-Apr-21 07:42 040 14 gusting 15 20.9
2014-Apr-21 07:36 040 13 gusting 15 21.0
2014-Apr-21 07:30 040 13 gusting 15 21.0
2014-Apr-21 07:24 040 13 gusting 14 21.0
2014-Apr-21 07:18 040 12 gusting 15 21.2
2014-Apr-21 07:12 040 12 gusting 14 21.2
2014-Apr-21 07:06 040 12 gusting 14 21.3
2014-Apr-21 07:00 040 12 gusting 15 21.4
2014-Apr-21 06:54 040 12 gusting 15 21.4
2014-Apr-21 06:48 040 13 gusting 15 21.3
2014-Apr-21 06:42 040 13 gusting 14 21.4
2014-Apr-21 06:36 040 14 gusting 16 21.4
2014-Apr-21 06:30 040 14 gusting 17 21.5
2014-Apr-21 06:24 040 13 gusting 15 21.6
2014-Apr-21 06:18 040 13 gusting 15 21.6
2014-Apr-21 06:12 030 12 gusting 14 21.7
2014-Apr-21 06:06 030 13 gusting 16 21.8
2014-Apr-21 06:00 040 13 gusting 15 21.9